Time;durP1;ratioP1;P1;durP2;ratioP2;P2;SDS_P1;SDS_P2;PMS_P1;PMS_P2;Temp;Humidity;BMP_temperature;BMP_pressure;BME280_temperature;BME280_humidity;BME280_pressure;Samples;Min_cycle;Max_cycle;Signal;HPM_P1;HPM_P2
2022/08/25 00:01:51;;;;;;;0.15;0.15;;;25.70;70.30;;;;;;5016943;28;20077;-56
2022/08/25 00:04:17;;;;;;;0.28;0.28;;;25.70;70.40;;;;;;5022842;28;20075;-57
2022/08/25 00:06:43;;;;;;;0.20;0.20;;;25.70;70.40;;;;;;5021879;28;20577;-57
2022/08/25 00:09:10;;;;;;;0.20;0.20;;;25.70;70.50;;;;;;5017864;28;20468;-58
2022/08/25 00:11:36;;;;;;;0.10;0.10;;;25.60;70.50;;;;;;5015437;28;20056;-57
2022/08/25 00:14:06;;;;;;;0.20;0.10;;;25.70;70.50;;;;;;5014398;28;20048;-57
2022/08/25 00:16:32;;;;;;;0.40;0.10;;;25.60;71.30;;;;;;5015447;28;20045;-56
2022/08/25 00:19:00;;;;;;;0.10;0.10;;;25.60;70.50;;;;;;5017016;28;20041;-56
2022/08/25 00:21:25;;;;;;;0.10;0.10;;;25.60;70.50;;;;;;5016536;28;20069;-56
2022/08/25 00:23:51;;;;;;;0.20;0.20;;;25.60;70.50;;;;;;5021990;28;20084;-58
2022/08/25 00:26:17;;;;;;;0.10;0.10;;;25.70;70.40;;;;;;5016846;28;20102;-56
2022/08/25 00:28:43;;;;;;;0.10;0.10;;;25.60;70.40;;;;;;5018835;28;20049;-54
2022/08/25 00:31:13;;;;;;;0.10;0.10;;;25.60;70.40;;;;;;5017973;28;20041;-55
2022/08/25 00:33:39;;;;;;;0.10;0.10;;;25.60;70.40;;;;;;5014316;28;20041;-54
2022/08/25 00:36:05;;;;;;;0.10;0.10;;;25.70;70.40;;;;;;5019828;28;20604;-55
2022/08/25 00:38:30;;;;;;;0.30;0.20;;;25.60;70.40;;;;;;5018906;28;20049;-57
2022/08/25 00:41:05;;;;;;;0.10;0.10;;;25.60;70.50;;;;;;5022464;28;20051;-54
2022/08/25 00:43:36;;;;;;;0.10;0.10;;;25.60;70.40;;;;;;5019447;28;20616;-55
2022/08/25 00:46:02;;;;;;;0.17;0.17;;;25.60;70.30;;;;;;5022149;28;20567;-56
2022/08/25 00:48:28;;;;;;;0.10;0.10;;;25.60;70.40;;;;;;5016756;28;20037;-57
2022/08/25 00:50:54;;;;;;;0.10;0.10;;;25.70;70.30;;;;;;5019838;28;20644;-28
2022/08/25 00:53:19;;;;;;;0.22;0.10;;;25.70;70.30;;;;;;5016908;28;20049;-27
2022/08/25 00:55:45;;;;;;;0.75;0.20;;;25.60;71.10;;;;;;5018598;28;20128;-26
2022/08/25 00:58:15;;;;;;;0.17;0.13;;;25.60;70.30;;;;;;5022667;28;20052;-29
2022/08/25 01:00:43;;;;;;;0.10;0.10;;;25.60;70.20;;;;;;5017080;27;20060;-26
2022/08/25 01:03:09;;;;;;;0.10;0.10;;;25.70;70.20;;;;;;5020228;28;20038;-29
2022/08/25 01:05:35;;;;;;;0.20;0.20;;;25.70;70.10;;;;;;5015617;28;20125;-27
2022/08/25 01:08:02;;;;;;;0.22;0.20;;;25.60;70.90;;;;;;5018677;28;20136;-29
2022/08/25 01:10:28;;;;;;;0.20;0.20;;;25.70;70.20;;;;;;5017061;28;20071;-28
2022/08/25 01:12:58;;;;;;;0.10;0.10;;;25.60;70.00;;;;;;5016605;28;20187;-28
2022/08/25 01:15:24;;;;;;;0.40;0.20;;;25.70;70.00;;;;;;5012362;28;20045;-27
2022/08/25 01:17:52;;;;;;;0.10;0.10;;;25.70;70.10;;;;;;5018854;28;20045;-27
2022/08/25 01:20:18;;;;;;;0.10;0.10;;;25.70;70.20;;;;;;5015093;28;20045;-27
2022/08/25 01:22:44;;;;;;;0.10;0.10;;;25.60;70.20;;;;;;5016998;28;20040;-29
2022/08/25 01:25:21;;;;;;;0.10;0.10;;;25.60;70.40;;;;;;5018665;28;20037;-28
2022/08/25 01:27:47;;;;;;;0.20;0.17;;;25.60;70.20;;;;;;5017908;28;20427;-28
2022/08/25 01:30:13;;;;;;;0.32;0.10;;;25.60;70.10;;;;;;5018657;28;20511;-26
2022/08/25 01:32:39;;;;;;;0.10;0.10;;;25.60;70.10;;;;;;5017295;28;20054;-26
2022/08/25 01:35:05;;;;;;;0.20;0.20;;;25.60;70.20;;;;;;5021658;28;20040;-26
2022/08/25 01:37:33;;;;;;;0.17;0.17;;;25.70;70.10;;;;;;5013073;28;20045;-27
2022/08/25 01:39:58;;;;;;;0.10;0.10;;;25.70;70.10;;;;;;5016225;28;20183;-31
2022/08/25 01:42:32;;;;;;;0.10;0.10;;;25.60;70.10;;;;;;5018341;28;20132;-29
2022/08/25 01:44:57;;;;;;;0.10;0.10;;;25.60;70.20;;;;;;5016351;28;20048;-28
2022/08/25 01:47:23;;;;;;;0.20;0.20;;;25.60;70.30;;;;;;5023676;28;20064;-28
2022/08/25 01:49:48;;;;;;;0.20;0.20;;;25.60;70.20;;;;;;5016907;28;20081;-28
2022/08/25 01:52:28;;;;;;;0.10;0.10;;;25.60;71.10;;;;;;5017363;28;20042;-26
2022/08/25 01:54:54;;;;;;;0.10;0.10;;;25.70;69.90;;;;;;5019719;28;20503;-29
2022/08/25 01:57:21;;;;;;;0.10;0.10;;;25.70;70.00;;;;;;5019503;28;20151;-26
2022/08/25 01:59:46;;;;;;;0.10;0.10;;;25.60;70.10;;;;;;5014812;28;20121;-26
2022/08/25 02:02:12;;;;;;;0.10;0.10;;;25.60;70.20;;;;;;5018312;28;20050;-26
2022/08/25 02:04:38;;;;;;;0.10;0.10;;;25.60;70.10;;;;;;5015904;28;20461;-29
2022/08/25 02:07:05;;;;;;;0.30;0.30;;;25.60;70.20;;;;;;5015924;28;20038;-29
2022/08/25 02:09:31;;;;;;;0.20;0.17;;;25.60;70.10;;;;;;5017970;28;20534;-28
2022/08/25 02:11:56;;;;;;;0.10;0.10;;;25.60;70.10;;;;;;5014310;28;20045;-31
2022/08/25 02:14:22;;;;;;;0.73;0.30;;;25.60;70.10;;;;;;5021133;28;20045;-31
2022/08/25 02:16:49;;;;;;;0.10;0.10;;;25.60;70.10;;;;;;5017878;28;20060;-27
2022/08/25 02:19:15;;;;;;;0.20;0.10;;;25.60;70.20;;;;;;5018263;28;20038;-26
2022/08/25 02:21:40;;;;;;;0.10;0.10;;;25.60;70.10;;;;;;5016654;28;20510;-27
2022/08/25 02:24:06;;;;;;;0.10;0.10;;;25.60;70.20;;;;;;5018444;28;20086;-27
2022/08/25 02:26:32;;;;;;;0.20;0.13;;;25.60;70.30;;;;;;5020267;28;20056;-28
2022/08/25 02:28:58;;;;;;;0.10;0.10;;;25.60;70.10;;;;;;5013963;28;20048;-30
2022/08/25 02:31:24;;;;;;;0.10;0.10;;;25.60;70.20;;;;;;5015314;28;20052;-26
2022/08/25 02:33:50;;;;;;;0.30;0.17;;;25.60;70.30;;;;;;5019722;28;20036;-29
2022/08/25 02:36:16;;;;;;;0.13;0.10;;;25.50;70.30;;;;;;5015200;28;20503;-28
2022/08/25 02:38:41;;;;;;;0.20;0.20;;;25.50;70.30;;;;;;5015260;28;20041;-27
2022/08/25 02:41:12;;;;;;;0.10;0.10;;;25.50;70.30;;;;;;5018017;28;20133;-30
2022/08/25 02:43:38;;;;;;;0.10;0.10;;;25.50;70.40;;;;;;5018828;28;20079;-26
2022/08/25 02:46:04;;;;;;;0.10;0.10;;;25.50;70.40;;;;;;5019501;28;20038;-28
2022/08/25 02:48:30;;;;;;;0.20;0.20;;;25.60;70.40;;;;;;5014883;28;20120;-27
2022/08/25 02:50:58;;;;;;;0.13;0.13;;;25.60;70.20;;;;;;5015194;28;20049;-29
2022/08/25 02:53:23;;;;;;;0.28;0.28;;;25.50;70.30;;;;;;5013143;28;20045;-27
2022/08/25 02:55:49;;;;;;;0.20;0.20;;;25.60;70.30;;;;;;5016176;28;20051;-26
2022/08/25 02:58:14;;;;;;;0.15;0.15;;;25.50;70.20;;;;;;5013780;28;20053;-26
2022/08/25 03:00:40;;;;;;;0.20;0.20;;;25.60;70.30;;;;;;5015958;28;20126;-28
2022/08/25 03:03:06;;;;;;;0.20;0.20;;;25.50;70.30;;;;;;5015315;28;20055;-26
2022/08/25 03:05:32;;;;;;;0.20;0.20;;;25.50;70.30;;;;;;5019188;28;20048;-27
2022/08/25 03:07:57;;;;;;;0.20;0.20;;;25.50;70.50;;;;;;5018981;28;20511;-30
2022/08/25 03:10:23;;;;;;;0.15;0.10;;;25.50;71.10;;;;;;5018388;28;20033;-31
2022/08/25 03:12:48;;;;;;;0.10;0.10;;;25.50;70.30;;;;;;5015588;28;20053;-26
2022/08/25 03:15:17;;;;;;;0.20;0.10;;;25.50;70.20;;;;;;5015160;28;20108;-29
2022/08/25 03:17:48;;;;;;;0.63;0.10;;;25.50;70.30;;;;;;5013450;28;20064;-28
2022/08/25 03:20:14;;;;;;;0.13;0.13;;;25.50;70.30;;;;;;5016931;28;20432;-27
2022/08/25 03:22:39;;;;;;;0.10;0.10;;;25.50;70.30;;;;;;5018791;28;20549;-26
2022/08/25 03:27:50;;;;;;;0.20;0.20;;;25.40;70.40;;;;;;5016774;28;20060;-27
2022/08/25 03:30:16;;;;;;;0.10;0.10;;;25.50;70.40;;;;;;5014465;28;20079;-28
2022/08/25 03:32:42;;;;;;;0.10;0.10;;;25.50;70.30;;;;;;5016307;28;20626;-26
2022/08/25 03:35:08;;;;;;;0.30;0.30;;;25.50;70.30;;;;;;5016140;28;20137;-29
2022/08/25 03:37:33;;;;;;;0.10;0.10;;;25.50;70.20;;;;;;5014411;28;20042;-28
2022/08/25 03:40:00;;;;;;;0.13;0.10;;;25.50;70.40;;;;;;5018316;28;20073;-29
2022/08/25 03:42:25;;;;;;;0.40;0.40;;;25.50;70.30;;;;;;5012366;28;20044;-32
2022/08/25 03:44:51;;;;;;;0.20;0.20;;;25.50;70.40;;;;;;5014653;28;20049;-26
2022/08/25 03:47:17;;;;;;;0.65;0.20;;;25.50;70.40;;;;;;5015141;28;20625;-26
2022/08/25 03:49:42;;;;;;;0.20;0.20;;;25.50;70.40;;;;;;5015232;28;20073;-25
2022/08/25 03:52:08;;;;;;;0.20;0.20;;;25.50;70.30;;;;;;5014553;28;20065;-25
2022/08/25 03:54:33;;;;;;;0.08;0.08;;;25.50;70.30;;;;;;5015186;28;22409;-30
2022/08/25 03:56:59;;;;;;;0.10;0.10;;;25.50;70.40;;;;;;5016296;28;20053;-28
2022/08/25 03:59:26;;;;;;;0.15;0.15;;;25.50;70.20;;;;;;5019063;28;20078;-27
2022/08/25 04:01:51;;;;;;;0.20;0.20;;;25.50;70.30;;;;;;5017911;28;20114;-26
2022/08/25 04:04:17;;;;;;;0.10;0.10;;;25.50;70.20;;;;;;5019426;28;20449;-27
2022/08/25 04:06:43;;;;;;;0.20;0.20;;;25.50;70.20;;;;;;5012151;28;20068;-28
2022/08/25 04:09:09;;;;;;;0.20;0.20;;;25.50;70.30;;;;;;5018998;28;20126;-27
2022/08/25 04:11:35;;;;;;;0.20;0.20;;;25.50;71.10;;;;;;5020567;28;20097;-26
2022/08/25 04:14:01;;;;;;;0.20;0.20;;;25.50;70.30;;;;;;5017264;28;20515;-26
2022/08/25 04:16:29;;;;;;;0.17;0.17;;;25.50;70.20;;;;;;5022043;28;20037;-27
2022/08/25 04:18:55;;;;;;;0.20;0.20;;;25.50;70.30;;;;;;5021968;28;20549;-26
2022/08/25 04:21:21;;;;;;;0.13;0.10;;;25.40;70.30;;;;;;5056123;28;20124;-31
2022/08/25 04:23:47;;;;;;;0.15;0.15;;;25.50;70.30;;;;;;5022554;28;20041;-27
2022/08/25 04:26:18;;;;;;;0.20;0.20;;;25.50;70.20;;;;;;5019503;28;20412;-26
2022/08/25 04:28:43;;;;;;;0.20;0.20;;;25.50;70.20;;;;;;5015184;28;20034;-26
2022/08/25 04:31:10;;;;;;;0.10;0.10;;;25.50;70.30;;;;;;5000730;28;20053;-28
2022/08/25 04:33:36;;;;;;;0.20;0.20;;;25.50;70.20;;;;;;5024012;28;20136;-31
2022/08/25 04:36:05;;;;;;;0.20;0.20;;;25.50;70.30;;;;;;5020287;28;20053;-27
2022/08/25 04:38:32;;;;;;;0.15;0.15;;;25.50;70.10;;;;;;5015864;28;20065;-29
2022/08/25 04:40:58;;;;;;;0.15;0.15;;;25.50;70.20;;;;;;5023629;28;20040;-29
2022/08/25 04:43:24;;;;;;;0.20;0.20;;;25.50;70.10;;;;;;5016694;28;20126;-29
2022/08/25 04:45:49;;;;;;;0.20;0.20;;;25.50;70.10;;;;;;5018858;28;20090;-28
2022/08/25 04:48:15;;;;;;;0.20;0.20;;;25.50;70.20;;;;;;5019172;28;20037;-28
2022/08/25 04:50:40;;;;;;;0.20;0.20;;;25.50;70.20;;;;;;5016783;28;20176;-28
2022/08/25 04:53:06;;;;;;;0.10;0.10;;;25.50;70.20;;;;;;5014885;28;20042;-30
2022/08/25 04:55:32;;;;;;;0.15;0.15;;;25.50;70.10;;;;;;5016961;28;20061;-27
2022/08/25 04:57:57;;;;;;;0.50;0.32;;;25.50;70.80;;;;;;5019745;28;20053;-28
2022/08/25 05:00:23;;;;;;;0.20;0.20;;;25.50;70.20;;;;;;5018051;28;20041;-27
2022/08/25 05:02:49;;;;;;;0.13;0.13;;;25.50;70.10;;;;;;5020658;28;20512;-26
2022/08/25 05:05:15;;;;;;;0.20;0.20;;;25.50;70.10;;;;;;5023056;28;20121;-29
2022/08/25 05:07:40;;;;;;;0.28;0.28;;;25.50;70.10;;;;;;5014819;28;20041;-23
2022/08/25 05:10:06;;;;;;;0.30;0.30;;;25.50;70.10;;;;;;5015043;28;20512;-29
2022/08/25 05:12:32;;;;;;;0.17;0.17;;;25.50;70.10;;;;;;5017551;28;20037;-26
2022/08/25 05:15:48;;;;;;;0.30;0.30;;;25.50;70.10;;;;;;5017158;28;20498;-27
2022/08/25 05:17:43;;;;;;;0.20;0.20;;;25.40;70.00;;;;;;5016942;28;20069;-29
2022/08/25 05:20:09;;;;;;;0.20;0.20;;;25.40;70.20;;;;;;5019388;28;20073;-27
2022/08/25 05:22:35;;;;;;;0.13;0.10;;;25.40;70.10;;;;;;5019050;28;20045;-31
2022/08/25 05:25:01;;;;;;;0.20;0.20;;;25.40;70.00;;;;;;5018145;28;20541;-30
2022/08/25 05:27:27;;;;;;;0.30;0.30;;;25.50;70.10;;;;;;5016878;28;20071;-26
2022/08/25 05:29:52;;;;;;;0.20;0.20;;;25.40;70.00;;;;;;5016434;28;20064;-26
2022/08/25 05:32:18;;;;;;;0.20;0.20;;;25.40;70.20;;;;;;5022501;28;20043;-26
2022/08/25 05:34:44;;;;;;;0.30;0.30;;;25.40;70.30;;;;;;5020595;28;20996;-29
2022/08/25 05:37:09;;;;;;;1.00;0.80;;;25.40;70.60;;;;;;5017490;28;20065;-26
2022/08/25 05:39:35;;;;;;;1.08;1.00;;;25.20;71.60;;;;;;5018582;28;20037;-26
2022/08/25 05:42:00;;;;;;;1.27;0.90;;;25.00;72.30;;;;;;5014031;28;20082;-28
2022/08/25 05:44:26;;;;;;;3.33;1.10;;;24.90;73.10;;;;;;5016700;28;20503;-27
2022/08/25 05:46:51;;;;;;;2.83;1.38;;;24.70;73.70;;;;;;5018529;28;20057;-27
2022/08/25 05:49:17;;;;;;;2.03;0.85;;;24.70;73.90;;;;;;5019637;28;20025;-33
2022/08/25 05:51:43;;;;;;;1.50;1.40;;;24.50;74.80;;;;;;5015974;28;20181;-27
2022/08/25 05:54:08;;;;;;;0.80;0.80;;;24.50;74.90;;;;;;5019767;28;20042;-26
2022/08/25 05:56:34;;;;;;;1.27;1.10;;;24.40;75.30;;;;;;5019732;28;20534;-32
2022/08/25 05:58:59;;;;;;;2.20;1.00;;;24.40;75.40;;;;;;5022516;28;21677;-27
2022/08/25 06:04:12;;;;;;;1.23;1.17;;;24.40;75.30;;;;;;5018612;28;20078;-28
2022/08/25 06:06:37;;;;;;;1.10;0.80;;;24.40;75.20;;;;;;5020773;28;20032;-27
2022/08/25 06:09:05;;;;;;;0.85;0.57;;;24.40;75.00;;;;;;5016411;28;20038;-29
2022/08/25 06:11:31;;;;;;;1.63;1.10;;;24.40;75.30;;;;;;5018309;28;20065;-28
2022/08/25 06:13:56;;;;;;;1.75;1.17;;;24.30;75.80;;;;;;5021190;28;20080;-26
2022/08/25 06:16:22;;;;;;;1.02;1.02;;;24.10;76.40;;;;;;5018596;28;20484;-26
2022/08/25 06:18:47;;;;;;;1.20;1.10;;;24.00;76.80;;;;;;5020774;28;20053;-27
2022/08/25 06:21:13;;;;;;;1.13;1.02;;;24.00;76.90;;;;;;5017818;28;20064;-27
2022/08/25 06:23:39;;;;;;;1.88;1.30;;;24.00;77.10;;;;;;5016604;28;20038;-32
2022/08/25 06:26:05;;;;;;;3.72;0.82;;;24.00;77.30;;;;;;5020968;28;20506;-27
2022/08/25 06:28:30;;;;;;;3.58;1.10;;;23.90;77.50;;;;;;5019066;28;20433;-29
2022/08/25 06:31:00;;;;;;;2.08;1.23;;;23.80;78.50;;;;;;5019314;28;20041;-26
2022/08/25 06:33:25;;;;;;;1.48;1.00;;;23.70;78.40;;;;;;5021956;28;20040;-27
2022/08/25 06:35:53;;;;;;;1.83;1.00;;;23.60;78.70;;;;;;5022754;28;20046;-34
2022/08/25 06:38:19;;;;;;;1.02;0.93;;;23.70;78.60;;;;;;5019795;28;20415;-26
2022/08/25 06:40:46;;;;;;;0.95;0.90;;;23.60;78.90;;;;;;5022462;28;20033;-28
2022/08/25 06:43:12;;;;;;;2.92;0.90;;;23.70;78.70;;;;;;5019954;28;20121;-29
2022/08/25 06:45:38;;;;;;;1.00;0.90;;;23.60;79.30;;;;;;5018272;28;20125;-29
2022/08/25 06:48:04;;;;;;;2.85;1.33;;;23.50;79.40;;;;;;5015934;28;20046;-27
2022/08/25 06:50:29;;;;;;;2.20;1.13;;;23.50;79.40;;;;;;5020817;28;20055;-48
2022/08/25 06:52:55;;;;;;;1.23;1.13;;;23.50;79.80;;;;;;5018444;28;20132;-56
2022/08/25 06:55:21;;;;;;;4.28;1.67;;;23.50;79.80;;;;;;5017243;28;20045;-55
2022/08/25 06:57:47;;;;;;;2.33;1.10;;;23.50;80.00;;;;;;5014792;28;20049;-52
2022/08/25 07:00:13;;;;;;;2.20;1.15;;;23.50;80.00;;;;;;5018905;28;20741;-57
2022/08/25 07:02:38;;;;;;;2.25;1.35;;;23.50;80.20;;;;;;5022522;28;20106;-38
2022/08/25 07:05:05;;;;;;;1.83;1.10;;;23.50;80.40;;;;;;5014525;28;20568;-56
2022/08/25 07:07:32;;;;;;;1.15;1.08;;;23.60;80.30;;;;;;5017099;28;20124;-57
2022/08/25 07:09:57;;;;;;;3.95;1.17;;;23.60;80.30;;;;;;5016855;28;20129;-55
2022/08/25 07:12:23;;;;;;;1.80;1.00;;;23.50;80.50;;;;;;5020070;28;20566;-55
2022/08/25 07:14:49;;;;;;;3.90;1.20;;;23.50;80.90;;;;;;5016393;28;20045;-52
2022/08/25 07:17:14;;;;;;;3.67;1.33;;;23.50;81.00;;;;;;5018936;28;20042;-39
2022/08/25 07:19:40;;;;;;;4.15;1.17;;;23.60;80.50;;;;;;4662880;28;9999921;-54
2022/08/25 07:22:06;;;;;;;2.53;0.95;;;23.60;80.30;;;;;;5011866;28;20085;-58
2022/08/25 07:24:32;;;;;;;3.92;1.00;;;23.70;80.10;;;;;;5014058;28;20525;-56
2022/08/25 07:26:58;;;;;;;1.60;0.95;;;23.70;80.00;;;;;;5012746;28;20049;-55
2022/08/25 07:29:24;;;;;;;4.80;1.10;;;23.80;79.90;;;;;;5010702;28;20053;-50
2022/08/25 07:31:50;;;;;;;2.20;0.90;;;23.80;79.80;;;;;;4998302;28;20045;-44
2022/08/25 07:37:03;;;;;;;;;;;23.70;80.00;;;;;;5005561;28;20101;-36
2022/08/25 07:39:28;;;;;;;4.35;1.15;;;23.80;79.80;;;;;;4983990;28;19921;-55
2022/08/25 07:41:54;;;;;;;2.28;1.10;;;23.80;79.80;;;;;;4999090;28;20049;-42
2022/08/25 07:44:20;;;;;;;2.15;0.90;;;23.80;79.70;;;;;;4997030;28;20038;-53
2022/08/25 07:46:47;;;;;;;1.58;0.70;;;23.80;79.90;;;;;;4999946;28;20058;-58
2022/08/25 07:49:12;;;;;;;3.22;0.90;;;23.80;79.80;;;;;;4997768;28;20611;-50
2022/08/25 07:51:38;;;;;;;2.55;0.98;;;23.80;79.80;;;;;;4995452;28;20038;-57
2022/08/25 07:54:04;;;;;;;4.35;0.98;;;23.80;79.60;;;;;;4999303;28;20409;-54
2022/08/25 07:56:30;;;;;;;1.95;0.77;;;23.80;79.70;;;;;;5002708;28;20050;-57
2022/08/25 07:58:55;;;;;;;1.77;0.80;;;23.80;79.60;;;;;;5000691;28;20102;-56
2022/08/25 08:01:22;;;;;;;1.45;0.90;;;23.80;79.70;;;;;;5001029;28;20133;-55
2022/08/25 08:03:47;;;;;;;1.63;0.70;;;23.80;79.80;;;;;;4999491;28;20057;-54
2022/08/25 08:06:15;;;;;;;1.48;0.68;;;23.80;80.00;;;;;;4997867;28;20594;-38
2022/08/25 08:08:43;;;;;;;1.52;0.75;;;23.70;79.90;;;;;;4997957;28;20555;-57
2022/08/25 08:11:18;;;;;;;1.38;0.65;;;23.70;80.40;;;;;;4994616;28;20034;-57
2022/08/25 08:13:44;;;;;;;1.67;0.77;;;23.60;80.50;;;;;;5001800;28;20045;-54
2022/08/25 08:16:10;;;;;;;1.80;0.75;;;23.60;80.50;;;;;;4998619;28;20035;-57
2022/08/25 08:18:36;;;;;;;0.93;0.60;;;23.60;80.50;;;;;;5001267;28;20038;-55
2022/08/25 08:21:02;;;;;;;2.00;0.60;;;23.50;80.70;;;;;;5001679;28;20048;-55
2022/08/25 08:23:28;;;;;;;3.20;0.45;;;23.60;80.10;;;;;;4994400;28;20523;-52
2022/08/25 08:25:54;;;;;;;1.45;0.50;;;23.70;80.20;;;;;;4995054;28;20083;-53
2022/08/25 08:28:20;;;;;;;0.88;0.50;;;23.60;80.10;;;;;;4997858;28;20207;-57
2022/08/25 08:30:46;;;;;;;1.17;0.55;;;23.70;79.60;;;;;;4998271;28;20065;-55
2022/08/25 08:33:11;;;;;;;1.08;0.50;;;23.70;79.70;;;;;;4998609;28;20122;-56
2022/08/25 08:35:37;;;;;;;0.68;0.40;;;23.70;79.40;;;;;;4999867;28;20050;-54
2022/08/25 08:38:03;;;;;;;2.08;0.82;;;23.70;79.20;;;;;;5001379;28;20090;-58
2022/08/25 08:40:28;;;;;;;0.43;0.40;;;23.70;79.50;;;;;;5000075;28;20633;-56
2022/08/25 08:43:06;;;;;;;0.50;0.43;;;23.70;79.40;;;;;;4635784;28;10000366;-53
2022/08/25 08:45:32;;;;;;;1.33;0.60;;;23.70;79.40;;;;;;4996565;28;20051;-56
2022/08/25 08:48:04;;;;;;;0.47;0.30;;;23.70;79.50;;;;;;4994521;28;20038;-49
2022/08/25 08:50:57;;;;;;;1.95;0.40;;;23.70;79.70;;;;;;4998530;28;20140;-32
2022/08/25 08:53:45;;;;;;;1.27;0.40;;;23.70;79.60;;;;;;4994316;28;20080;-56
2022/08/25 08:56:18;;;;;;;1.20;0.40;;;23.70;79.60;;;;;;4996257;28;20030;-50
2022/08/25 08:58:53;;;;;;;1.57;0.47;;;23.70;79.50;;;;;;4999728;28;20041;-54
2022/08/25 09:01:26;;;;;;;0.60;0.40;;;23.80;79.20;;;;;;5010830;28;20123;-57
2022/08/25 09:03:58;;;;;;;0.63;0.40;;;23.80;79.10;;;;;;4995795;28;20559;-53
2022/08/25 09:06:36;;;;;;;1.35;0.60;;;23.80;79.20;;;;;;5078375;27;21014;-57
2022/08/25 09:09:03;;;;;;;1.15;0.60;;;23.70;79.50;;;;;;4998537;28;20046;-52
2022/08/25 09:11:41;;;;;;;0.60;0.50;;;23.70;79.50;;;;;;4993052;28;20045;-53
2022/08/25 09:14:24;;;;;;;2.45;0.80;;;23.80;79.40;;;;;;4981616;28;20091;-52
2022/08/25 09:16:55;;;;;;;0.87;0.50;;;23.80;79.20;;;;;;4999660;28;20068;-44
2022/08/25 09:20:02;;;;;;;0.60;0.40;;;23.80;79.10;;;;;;4992293;28;20099;-56
2022/08/25 09:22:38;;;;;;;1.10;0.40;;;23.70;79.60;;;;;;4995652;28;20056;-53
2022/08/25 09:25:10;;;;;;;0.90;0.32;;;23.50;79.80;;;;;;5012024;27;20445;-56
2022/08/25 09:27:50;;;;;;;0.45;0.30;;;23.60;79.80;;;;;;4998697;28;20071;-56
2022/08/25 09:30:17;;;;;;;2.05;0.40;;;23.60;79.70;;;;;;4997839;28;20046;-53
2022/08/25 09:32:52;;;;;;;1.15;0.45;;;23.60;79.60;;;;;;5006571;28;20074;-55
2022/08/25 09:35:22;;;;;;;1.02;0.30;;;23.60;79.50;;;;;;5002451;28;20065;-57
2022/08/25 09:37:58;;;;;;;0.98;0.20;;;23.70;79.30;;;;;;4999310;28;20056;-54
2022/08/25 09:40:24;;;;;;;0.22;0.17;;;23.60;79.00;;;;;;4648691;28;10000965;-57
2022/08/25 09:42:55;;;;;;;0.38;0.10;;;23.60;79.00;;;;;;4994347;28;20038;-46
2022/08/25 09:45:37;;;;;;;0.20;0.10;;;23.70;79.00;;;;;;4995933;28;20133;-49
2022/08/25 09:48:24;;;;;;;0.60;0.30;;;23.70;78.80;;;;;;4994216;28;20038;-56
2022/08/25 09:50:51;;;;;;;0.45;0.20;;;23.50;79.30;;;;;;5004245;28;20981;-43
2022/08/25 09:53:17;;;;;;;0.47;0.10;;;23.50;79.50;;;;;;4993869;28;20275;-48
2022/08/25 09:55:43;;;;;;;0.32;0.10;;;23.60;79.30;;;;;;4998747;28;20133;-46
2022/08/25 09:58:22;;;;;;;0.32;0.20;;;23.60;79.20;;;;;;4994038;28;20038;-57
2022/08/25 10:01:00;;;;;;;0.40;0.15;;;23.60;79.30;;;;;;4993630;28;20081;-55
2022/08/25 10:03:26;;;;;;;0.10;0.00;;;23.70;79.30;;;;;;4995231;28;20612;-54
2022/08/25 10:05:57;;;;;;;0.47;0.13;;;23.60;79.40;;;;;;4996509;28;20043;-53
2022/08/25 10:09:00;;;;;;;1.48;0.20;;;23.70;79.50;;;;;;4990213;28;20085;-55
2022/08/25 10:11:55;;;;;;;0.15;0.10;;;23.70;79.40;;;;;;5001768;28;20081;-50
2022/08/25 10:14:27;;;;;;;0.73;0.20;;;23.80;79.00;;;;;;4978837;28;20172;-56
2022/08/25 10:17:10;;;;;;;0.20;0.20;;;23.80;78.90;;;;;;4990713;28;20055;-53
2022/08/25 10:19:35;;;;;;;0.22;0.20;;;23.90;78.80;;;;;;4998050;28;20054;-57
2022/08/25 10:22:33;;;;;;;0.47;0.10;;;23.80;78.70;;;;;;4995746;28;20049;-49
2022/08/25 10:24:59;;;;;;;0.50;0.20;;;23.80;79.00;;;;;;4999875;28;20050;-46
2022/08/25 10:27:49;;;;;;;0.20;0.10;;;23.90;79.20;;;;;;4999599;28;20114;-57
2022/08/25 10:30:51;;;;;;;0.40;0.13;;;23.80;79.00;;;;;;4999932;28;20427;-57
2022/08/25 10:33:33;;;;;;;0.70;0.10;;;23.80;78.60;;;;;;4993774;28;20047;-56
2022/08/25 10:36:21;;;;;;;0.32;0.20;;;23.80;78.60;;;;;;5000172;28;20066;-56
2022/08/25 10:38:54;;;;;;;1.30;0.20;;;23.80;78.50;;;;;;4995655;28;20069;-55
2022/08/25 10:41:26;;;;;;;0.73;0.30;;;23.90;78.50;;;;;;4647053;28;10000146;-52
2022/08/25 10:44:05;;;;;;;0.98;0.52;;;23.90;78.70;;;;;;4993811;28;20046;-53
2022/08/25 10:46:46;;;;;;;0.40;0.40;;;23.90;78.40;;;;;;4986427;28;20486;-57
2022/08/25 10:49:11;;;;;;;0.65;0.50;;;23.90;79.10;;;;;;5008548;28;20174;-55
2022/08/25 10:52:01;;;;;;;1.65;0.45;;;24.00;78.70;;;;;;4989389;28;20535;-57
2022/08/25 10:54:41;;;;;;;0.60;0.55;;;24.00;78.90;;;;;;4992621;28;20064;-56
2022/08/25 10:57:16;;;;;;;1.05;0.50;;;24.10;78.60;;;;;;4993761;28;20523;-47
2022/08/25 10:59:53;;;;;;;0.32;0.32;;;24.10;78.50;;;;;;5000231;28;20124;-54
2022/08/25 11:02:51;;;;;;;0.82;0.40;;;24.10;78.20;;;;;;4977432;28;20088;-54
2022/08/25 11:05:31;;;;;;;0.20;0.20;;;24.00;78.50;;;;;;5009930;28;20042;-57
2022/08/25 11:08:03;;;;;;;0.40;0.30;;;23.90;78.30;;;;;;4998512;28;20097;-57
2022/08/25 11:10:36;;;;;;;0.32;0.30;;;24.00;77.70;;;;;;4994983;28;20049;-59
2022/08/25 11:13:05;;;;;;;1.63;0.50;;;23.90;77.50;;;;;;4993577;28;20088;-55
2022/08/25 11:15:36;;;;;;;0.30;0.20;;;24.00;78.70;;;;;;4643982;28;10000136;-57
2022/08/25 11:18:06;;;;;;;2.35;0.38;;;23.90;77.20;;;;;;4993615;28;20038;-30
2022/08/25 11:20:36;;;;;;;0.57;0.47;;;23.90;77.10;;;;;;4981910;28;20048;-57
2022/08/25 11:23:23;;;;;;;0.45;0.20;;;23.90;76.90;;;;;;5083947;27;20041;-52
2022/08/25 11:25:56;;;;;;;0.43;0.13;;;23.80;77.00;;;;;;4999634;28;20124;-47
2022/08/25 11:28:29;;;;;;;0.70;0.20;;;23.80;76.60;;;;;;5007162;28;20056;-51
2022/08/25 11:30:56;;;;;;;0.17;0.15;;;23.90;76.70;;;;;;4996547;28;20045;-58
2022/08/25 11:33:22;;;;;;;0.25;0.15;;;23.90;76.00;;;;;;4978037;28;20054;-56
2022/08/25 11:35:57;;;;;;;1.05;0.20;;;23.90;76.10;;;;;;4992966;28;20055;-56
2022/08/25 11:38:47;;;;;;;0.77;0.10;;;23.90;75.80;;;;;;4993967;28;20049;-56
2022/08/25 11:41:54;;;;;;;1.08;0.10;;;23.90;75.50;;;;;;4994385;28;20034;-58
2022/08/25 11:44:42;;;;;;;1.85;0.28;;;23.90;75.30;;;;;;5018619;28;20106;-57
2022/08/25 11:47:13;;;;;;;0.90;0.20;;;24.00;74.40;;;;;;5004820;28;20120;-56
2022/08/25 11:49:48;;;;;;;0.40;0.20;;;24.00;74.40;;;;;;5001069;28;20049;-58
2022/08/25 11:52:40;;;;;;;0.20;0.10;;;24.00;73.90;;;;;;4649004;28;9999749;-57
2022/08/25 11:55:16;;;;;;;0.38;0.10;;;24.00;73.00;;;;;;4995763;28;20042;-57
2022/08/25 11:57:42;;;;;;;0.20;0.10;;;24.00;72.90;;;;;;4991771;28;20111;-55
2022/08/25 12:00:14;;;;;;;0.28;0.10;;;24.00;72.00;;;;;;4996081;28;20045;-57
2022/08/25 12:02:40;;;;;;;0.43;0.10;;;24.00;71.20;;;;;;4996136;28;20050;-56
2022/08/25 12:05:18;;;;;;;0.43;0.25;;;24.00;71.70;;;;;;4999709;28;20038;-56
2022/08/25 12:07:47;;;;;;;0.55;0.08;;;24.00;71.30;;;;;;4995073;28;20428;-58
2022/08/25 12:10:13;;;;;;;0.40;0.20;;;24.10;71.20;;;;;;4983584;28;20046;-58
2022/08/25 12:12:45;;;;;;;0.10;0.10;;;24.10;70.70;;;;;;4992065;28;20041;-58
2022/08/25 12:15:32;;;;;;;1.00;0.13;;;24.00;71.70;;;;;;4989921;28;20539;-54
2022/08/25 12:18:30;;;;;;;1.27;0.20;;;24.10;71.00;;;;;;4997066;28;20046;-54
2022/08/25 12:20:55;;;;;;;0.38;0.10;;;24.10;71.30;;;;;;4992842;28;20128;-55
2022/08/25 12:23:34;;;;;;;0.10;0.10;;;24.00;71.60;;;;;;4998670;28;20041;-54
2022/08/25 12:26:01;;;;;;;1.55;0.10;;;24.00;71.40;;;;;;5001480;28;20030;-46
2022/08/25 12:28:52;;;;;;;0.22;0.10;;;24.00;71.70;;;;;;4999237;28;20085;-47
2022/08/25 12:31:42;;;;;;;1.00;0.00;;;24.00;71.50;;;;;;4995963;28;20123;-55
2022/08/25 12:34:50;;;;;;;0.08;0.00;;;24.00;71.80;;;;;;5003163;28;20057;-51
2022/08/25 12:37:17;;;;;;;1.00;0.10;;;24.10;71.40;;;;;;4995152;28;20573;-54
2022/08/25 12:39:49;;;;;;;0.35;0.10;;;24.20;71.20;;;;;;5008678;28;20045;-55
2022/08/25 12:42:34;;;;;;;0.52;0.10;;;24.20;70.70;;;;;;4997134;28;20520;-53
2022/08/25 12:45:23;;;;;;;0.40;0.10;;;24.30;70.70;;;;;;5006148;28;20064;-53
2022/08/25 12:47:49;;;;;;;0.35;0.10;;;24.30;70.50;;;;;;4999742;28;20457;-54
2022/08/25 12:50:42;;;;;;;0.30;0.20;;;24.40;70.40;;;;;;5006479;28;20447;-31
2022/08/25 12:53:40;;;;;;;0.15;0.13;;;24.40;70.20;;;;;;5002673;28;20591;-33
2022/08/25 12:56:23;;;;;;;0.20;0.10;;;24.40;70.30;;;;;;5006523;28;20506;-26
2022/08/25 12:59:29;;;;;;;0.17;0.10;;;24.50;70.90;;;;;;5000987;28;20050;-29
2022/08/25 13:02:07;;;;;;;0.13;0.00;;;24.40;70.20;;;;;;5067862;28;20101;-29
2022/08/25 13:04:37;;;;;;;0.30;0.10;;;24.50;70.10;;;;;;5063970;28;20048;-27
2022/08/25 13:07:33;;;;;;;0.75;0.20;;;24.50;69.80;;;;;;5061822;28;20667;-27
2022/08/25 13:10:08;;;;;;;0.50;0.00;;;24.60;69.70;;;;;;5080218;28;20565;-27